Time;durP1;ratioP1;P1;durP2;ratioP2;P2;SDS_P1;SDS_P2;PMS_P1;PMS_P2;Temp;Humidity;BMP_temperature;BMP_pressure;BME280_temperature;BME280_humidity;BME280_pressure;Samples;Min_cycle;Max_cycle;Signal;HPM_P1;HPM_P2
2022/03/11 00:01:22;;;;;;;0.30;0.30;;;;;;;;;;5007427;28;20220;-73
2022/03/11 00:03:49;;;;;;;0.00;0.00;;;;;;;;;;5001612;28;20212;-73
2022/03/11 00:06:17;;;;;;;3.40;1.87;;;;;;;;;;4999477;28;20212;-74
2022/03/11 00:08:44;;;;;;;1.97;1.80;;;;;;;;;;5002574;28;20255;-72
2022/03/11 00:11:12;;;;;;;1.17;1.07;;;;;;;;;;4995310;28;20201;-71
2022/03/11 00:13:39;;;;;;;1.50;1.40;;;;;;;;;;5000276;28;20669;-70
2022/03/11 00:16:06;;;;;;;0.23;0.23;;;;;;;;;;4997592;28;20198;-71
2022/03/11 00:18:35;;;;;;;0.20;0.20;;;;;;;;;;4998174;28;20229;-74
2022/03/11 00:21:02;;;;;;;0.73;0.73;;;;;;;;;;4995548;28;20207;-72
2022/03/11 00:23:30;;;;;;;0.00;0.00;;;;;;;;;;4997275;28;20292;-71
2022/03/11 00:25:57;;;;;;;0.10;0.10;;;;;;;;;;4998139;28;20585;-71
2022/03/11 00:28:25;;;;;;;0.17;0.17;;;;;;;;;;4995750;28;20206;-72
2022/03/11 00:30:52;;;;;;;1.43;0.53;;;;;;;;;;4999204;28;20233;-72
2022/03/11 00:33:19;;;;;;;2.00;1.03;;;;;;;;;;5024224;28;20711;-71
2022/03/11 00:35:48;;;;;;;0.20;0.20;;;;;;;;;;5022810;28;20583;-72
2022/03/11 00:38:15;;;;;;;0.33;0.33;;;;;;;;;;5029063;28;20228;-73
2022/03/11 00:40:43;;;;;;;2.00;1.40;;;;;;;;;;5030182;28;20223;-72
2022/03/11 00:43:10;;;;;;;2.13;1.97;;;;;;;;;;5029363;28;20192;-72
2022/03/11 00:45:37;;;;;;;0.20;0.20;;;;;;;;;;5023716;28;20201;-72
2022/03/11 00:48:05;;;;;;;0.20;0.20;;;;;;;;;;5020732;28;20228;-72
2022/03/11 00:50:32;;;;;;;0.50;0.40;;;;;;;;;;5018917;28;20196;-72
2022/03/11 00:53:02;;;;;;;0.57;0.57;;;;;;;;;;5019419;28;20205;-73
2022/03/11 00:55:29;;;;;;;0.00;0.00;;;;;;;;;;5021887;28;20223;-72
2022/03/11 00:57:56;;;;;;;2.83;1.60;;;;;;;;;;5023771;28;20577;-72
2022/03/11 01:00:24;;;;;;;2.10;1.90;;;;;;;;;;5021810;28;20234;-72
2022/03/11 01:02:51;;;;;;;0.60;0.57;;;;;;;;;;5022796;28;20553;-72
2022/03/11 01:05:19;;;;;;;2.37;1.80;;;;;;;;;;5026513;28;20213;-72
2022/03/11 01:07:47;;;;;;;0.20;0.20;;;;;;;;;;5022443;28;20659;-71
2022/03/11 01:10:15;;;;;;;0.00;0.00;;;;;;;;;;5022975;28;20202;-71
2022/03/11 01:12:43;;;;;;;3.67;0.43;;;;;;;;;;5023300;28;20204;-71
2022/03/11 01:15:11;;;;;;;6.90;4.30;;;;;;;;;;5029634;28;20204;-73
2022/03/11 01:17:39;;;;;;;0.00;0.00;;;;;;;;;;5026553;28;20205;-71
2022/03/11 01:20:07;;;;;;;0.00;0.00;;;;;;;;;;5023059;28;20592;-72
2022/03/11 01:22:35;;;;;;;0.90;0.87;;;;;;;;;;5024578;28;20196;-71
2022/03/11 01:25:02;;;;;;;2.90;1.37;;;;;;;;;;5025359;28;20208;-72
2022/03/11 01:27:31;;;;;;;3.70;0.53;;;;;;;;;;5023170;28;20200;-71
2022/03/11 01:29:59;;;;;;;2.20;2.00;;;;;;;;;;5025326;28;20775;-72
2022/03/11 01:32:26;;;;;;;0.00;0.00;;;;;;;;;;5029843;28;20193;-72
2022/03/11 01:34:53;;;;;;;2.83;1.20;;;;;;;;;;5027209;28;20211;-73
2022/03/11 01:37:21;;;;;;;3.97;3.77;;;;;;;;;;5033193;28;20299;-73
2022/03/11 01:39:48;;;;;;;0.00;0.00;;;;;;;;;;5024436;28;20223;-73
2022/03/11 01:42:15;;;;;;;0.63;0.63;;;;;;;;;;5023884;28;20201;-73
2022/03/11 01:44:44;;;;;;;0.00;0.00;;;;;;;;;;5023999;28;20200;-72
2022/03/11 01:47:12;;;;;;;0.00;0.00;;;;;;;;;;5025246;28;20228;-72
2022/03/11 01:49:39;;;;;;;0.27;0.17;;;;;;;;;;5040068;28;20216;-72
2022/03/11 01:52:06;;;;;;;1.07;1.07;;;;;;;;;;5047114;28;20222;-72
2022/03/11 01:54:34;;;;;;;0.20;0.20;;;;;;;;;;5032923;28;20204;-72
2022/03/11 01:57:02;;;;;;;0.63;0.63;;;;;;;;;;5033917;28;20212;-72
2022/03/11 01:59:29;;;;;;;2.43;2.23;;;;;;;;;;5033635;28;20635;-73
2022/03/11 02:01:58;;;;;;;0.30;0.20;;;;;;;;;;5040503;28;20196;-72
2022/03/11 02:04:25;;;;;;;1.77;1.53;;;;;;;;;;5035038;28;20864;-72
2022/03/11 02:06:53;;;;;;;0.17;0.17;;;;;;;;;;5024742;28;20580;-72
2022/03/11 02:09:21;;;;;;;0.57;0.57;;;;;;;;;;5026939;28;20242;-72
2022/03/11 02:11:48;;;;;;;0.20;0.20;;;;;;;;;;5033057;28;20301;-72
2022/03/11 02:14:16;;;;;;;0.20;0.20;;;;;;;;;;5040190;28;20262;-72
2022/03/11 02:16:43;;;;;;;0.93;0.93;;;;;;;;;;5030308;28;20327;-72
2022/03/11 02:19:12;;;;;;;0.10;0.10;;;;;;;;;;5024568;28;20235;-73
2022/03/11 02:21:43;;;;;;;0.10;0.10;;;;;;;;;;5027265;28;20211;-72
2022/03/11 02:24:11;;;;;;;0.00;0.00;;;;;;;;;;5024579;28;20539;-72
2022/03/11 02:26:39;;;;;;;0.30;0.30;;;;;;;;;;5024462;28;20659;-71
2022/03/11 02:29:07;;;;;;;0.20;0.20;;;;;;;;;;5021272;28;20200;-73
2022/03/11 02:31:35;;;;;;;1.87;0.57;;;;;;;;;;5022887;28;20219;-72
2022/03/11 02:34:03;;;;;;;0.10;0.10;;;;;;;;;;5024160;28;20204;-72
2022/03/11 02:36:31;;;;;;;0.13;0.13;;;;;;;;;;5023114;28;20678;-72
2022/03/11 02:38:58;;;;;;;4.80;1.20;;;;;;;;;;5023425;28;20232;-72
2022/03/11 02:41:27;;;;;;;1.90;0.87;;;;;;;;;;5024488;28;20642;-73
2022/03/11 02:43:54;;;;;;;0.47;0.47;;;;;;;;;;5022180;28;20219;-72
2022/03/11 02:46:22;;;;;;;0.30;0.30;;;;;;;;;;5022099;28;20669;-72
2022/03/11 02:48:49;;;;;;;0.20;0.17;;;;;;;;;;5022335;28;20201;-73
2022/03/11 02:51:16;;;;;;;0.00;0.00;;;;;;;;;;5021989;28;20200;-72
2022/03/11 02:53:44;;;;;;;0.90;0.90;;;;;;;;;;5022938;28;20197;-72
2022/03/11 02:56:12;;;;;;;0.93;0.57;;;;;;;;;;5024954;28;20200;-73
2022/03/11 02:58:42;;;;;;;0.37;0.33;;;;;;;;;;5029394;28;20196;-71
2022/03/11 03:01:10;;;;;;;0.93;0.73;;;;;;;;;;5028692;28;20741;-72
2022/03/11 03:03:37;;;;;;;0.83;0.50;;;;;;;;;;5027247;28;20554;-73
2022/03/11 03:06:05;;;;;;;0.07;0.07;;;;;;;;;;5023251;28;20249;-73
2022/03/11 03:08:32;;;;;;;4.33;2.70;;;;;;;;;;5022084;28;20222;-72
2022/03/11 03:11:00;;;;;;;0.73;0.30;;;;;;;;;;5031632;28;20236;-72
2022/03/11 03:13:27;;;;;;;0.00;0.00;;;;;;;;;;5036117;28;20200;-72
2022/03/11 03:15:56;;;;;;;0.50;0.50;;;;;;;;;;5040970;28;20202;-73
2022/03/11 03:18:24;;;;;;;1.30;0.77;;;;;;;;;;5042994;28;20632;-73
2022/03/11 03:20:51;;;;;;;0.00;0.00;;;;;;;;;;5045341;28;20258;-72
2022/03/11 03:23:19;;;;;;;0.20;0.20;;;;;;;;;;5044696;28;20200;-72
2022/03/11 03:25:46;;;;;;;1.50;1.40;;;;;;;;;;5039117;28;20184;-73
2022/03/11 03:28:14;;;;;;;5.30;5.00;;;;;;;;;;5040516;28;20235;-72
2022/03/11 03:30:41;;;;;;;0.20;0.20;;;;;;;;;;5040417;28;20211;-73
2022/03/11 03:33:10;;;;;;;0.30;0.13;;;;;;;;;;5040171;28;20203;-72
2022/03/11 03:35:38;;;;;;;0.27;0.27;;;;;;;;;;5047252;28;20636;-73
2022/03/11 03:38:05;;;;;;;0.00;0.00;;;;;;;;;;5039697;28;20209;-72
2022/03/11 03:40:33;;;;;;;0.00;0.00;;;;;;;;;;5046561;28;20234;-73
2022/03/11 03:43:00;;;;;;;0.67;0.67;;;;;;;;;;5039349;28;20214;-72
2022/03/11 03:45:28;;;;;;;0.07;0.03;;;;;;;;;;5038135;28;20196;-73
2022/03/11 03:47:55;;;;;;;0.60;0.27;;;;;;;;;;5047471;28;20231;-72
2022/03/11 03:50:24;;;;;;;0.10;0.10;;;;;;;;;;5035674;28;20197;-73
2022/03/11 03:52:51;;;;;;;0.20;0.20;;;;;;;;;;5044733;28;20275;-72
2022/03/11 03:55:19;;;;;;;1.03;1.03;;;;;;;;;;5058654;28;20214;-72
2022/03/11 03:57:46;;;;;;;2.03;1.90;;;;;;;;;;5057378;28;20209;-73
2022/03/11 04:00:14;;;;;;;0.60;0.60;;;;;;;;;;5043374;28;20235;-73
2022/03/11 04:02:45;;;;;;;0.00;0.00;;;;;;;;;;5049695;28;20207;-72
2022/03/11 04:05:13;;;;;;;0.57;0.57;;;;;;;;;;5047720;28;20181;-71
2022/03/11 04:07:43;;;;;;;2.10;1.93;;;;;;;;;;5034312;28;20232;-72
2022/03/11 04:10:11;;;;;;;1.47;0.43;;;;;;;;;;5048339;28;20219;-71
2022/03/11 04:12:38;;;;;;;1.07;0.90;;;;;;;;;;5048011;28;20292;-71
2022/03/11 04:15:06;;;;;;;0.73;0.73;;;;;;;;;;5048914;28;20214;-73
2022/03/11 04:17:33;;;;;;;1.83;1.07;;;;;;;;;;5042871;28;20211;-70
2022/03/11 04:20:01;;;;;;;0.40;0.30;;;;;;;;;;5037761;28;20238;-71
2022/03/11 04:22:28;;;;;;;0.77;0.77;;;;;;;;;;5034876;28;20196;-72
2022/03/11 04:24:57;;;;;;;2.10;0.63;;;;;;;;;;5044536;28;20207;-72
2022/03/11 04:27:24;;;;;;;3.17;0.53;;;;;;;;;;5045062;28;20204;-73
2022/03/11 04:29:51;;;;;;;0.33;0.33;;;;;;;;;;5054453;28;20196;-72
2022/03/11 04:32:19;;;;;;;0.87;0.70;;;;;;;;;;5046022;28;20242;-72
2022/03/11 04:34:46;;;;;;;0.00;0.00;;;;;;;;;;5052356;28;20264;-72
2022/03/11 04:37:13;;;;;;;2.00;1.90;;;;;;;;;;5047946;28;20230;-73
2022/03/11 04:39:41;;;;;;;0.57;0.57;;;;;;;;;;5052615;28;20228;-71
2022/03/11 04:42:10;;;;;;;0.10;0.10;;;;;;;;;;5050588;28;20259;-72
2022/03/11 04:44:38;;;;;;;0.00;0.00;;;;;;;;;;5054831;28;20196;-72
2022/03/11 04:47:05;;;;;;;0.00;0.00;;;;;;;;;;5052525;28;20235;-69
2022/03/11 04:49:33;;;;;;;0.10;0.10;;;;;;;;;;5056571;28;20223;-72
2022/03/11 04:52:00;;;;;;;0.67;0.67;;;;;;;;;;5045384;28;20208;-68
2022/03/11 04:54:27;;;;;;;0.13;0.13;;;;;;;;;;5053530;28;20211;-73
2022/03/11 04:56:55;;;;;;;0.30;0.30;;;;;;;;;;5045472;28;20196;-69
2022/03/11 04:59:24;;;;;;;0.00;0.00;;;;;;;;;;5047440;28;20206;-70
2022/03/11 05:01:52;;;;;;;1.30;0.63;;;;;;;;;;5056144;28;20189;-71
2022/03/11 05:04:19;;;;;;;0.07;0.07;;;;;;;;;;5069480;28;20190;-71
2022/03/11 05:06:47;;;;;;;0.00;0.00;;;;;;;;;;5056155;28;20180;-72
2022/03/11 05:09:15;;;;;;;0.53;0.53;;;;;;;;;;5065848;28;20180;-70
2022/03/11 05:11:42;;;;;;;0.30;0.30;;;;;;;;;;5058297;28;20207;-72
2022/03/11 05:14:10;;;;;;;0.83;0.73;;;;;;;;;;5053643;28;20201;-72
2022/03/11 05:16:38;;;;;;;1.23;0.80;;;;;;;;;;5062815;28;20180;-72
2022/03/11 05:19:06;;;;;;;0.30;0.30;;;;;;;;;;5065821;28;20196;-73
2022/03/11 05:21:33;;;;;;;0.73;0.73;;;;;;;;;;5051669;28;20251;-73
2022/03/11 05:24:00;;;;;;;2.70;1.47;;;;;;;;;;5051518;28;20275;-71
2022/03/11 05:26:29;;;;;;;0.10;0.10;;;;;;;;;;5055346;28;20188;-70
2022/03/11 05:28:58;;;;;;;0.70;0.70;;;;;;;;;;5055944;28;20280;-70
2022/03/11 05:31:26;;;;;;;0.00;0.00;;;;;;;;;;5053132;28;20283;-71
2022/03/11 05:33:55;;;;;;;0.33;0.33;;;;;;;;;;5056738;28;20189;-70
2022/03/11 05:36:22;;;;;;;0.37;0.37;;;;;;;;;;5063371;28;20211;-72
2022/03/11 05:38:50;;;;;;;2.23;1.23;;;;;;;;;;5036790;28;20196;-74
2022/03/11 05:41:17;;;;;;;0.23;0.23;;;;;;;;;;5043321;28;20226;-72
2022/03/11 05:43:44;;;;;;;0.87;0.87;;;;;;;;;;5049998;28;20192;-71
2022/03/11 05:46:13;;;;;;;1.23;0.97;;;;;;;;;;5045618;28;20196;-73
2022/03/11 05:48:40;;;;;;;0.20;0.20;;;;;;;;;;5036743;28;20556;-73
2022/03/11 05:51:09;;;;;;;0.63;0.27;;;;;;;;;;5036810;28;20211;-76
2022/03/11 05:53:36;;;;;;;0.50;0.50;;;;;;;;;;5033765;28;20268;-74
2022/03/11 05:56:04;;;;;;;0.00;0.00;;;;;;;;;;5029956;28;20200;-72
2022/03/11 05:58:31;;;;;;;0.00;0.00;;;;;;;;;;5034907;28;20200;-73
2022/03/11 06:00:58;;;;;;;35.90;34.10;;;;;;;;;;5035721;28;20223;-72
2022/03/11 06:03:26;;;;;;;0.00;0.00;;;;;;;;;;5038402;28;20206;-71
2022/03/11 06:05:53;;;;;;;2.23;1.43;;;;;;;;;;5034211;28;20201;-73
2022/03/11 06:08:22;;;;;;;0.30;0.30;;;;;;;;;;5031049;28;20268;-71
2022/03/11 06:10:49;;;;;;;0.00;0.00;;;;;;;;;;5036467;28;20200;-72
2022/03/11 06:13:16;;;;;;;2.07;1.50;;;;;;;;;;5045820;28;20215;-72
2022/03/11 06:15:45;;;;;;;1.33;0.90;;;;;;;;;;5049270;28;20268;-72
2022/03/11 06:18:15;;;;;;;0.17;0.17;;;;;;;;;;5046945;28;20204;-71
2022/03/11 06:20:43;;;;;;;0.07;0.07;;;;;;;;;;5039682;28;20231;-70
2022/03/11 06:23:10;;;;;;;1.50;1.40;;;;;;;;;;5045209;28;20204;-73
2022/03/11 06:25:39;;;;;;;0.23;0.20;;;;;;;;;;5047342;28;20200;-72
2022/03/11 06:28:06;;;;;;;0.90;0.90;;;;;;;;;;5044166;28;20204;-72
2022/03/11 06:30:34;;;;;;;0.00;0.00;;;;;;;;;;5026954;28;20201;-71
2022/03/11 06:33:01;;;;;;;0.10;0.10;;;;;;;;;;5052459;28;20227;-71
2022/03/11 06:35:29;;;;;;;0.17;0.10;;;;;;;;;;5045196;28;20212;-72
2022/03/11 06:37:56;;;;;;;0.83;0.50;;;;;;;;;;5044158;28;20268;-73
2022/03/11 06:40:23;;;;;;;0.93;0.93;;;;;;;;;;5042503;28;20234;-71
2022/03/11 06:42:53;;;;;;;1.10;0.30;;;;;;;;;;5052049;28;20203;-73
2022/03/11 06:45:21;;;;;;;1.07;0.63;;;;;;;;;;5056942;28;20291;-73
2022/03/11 06:47:48;;;;;;;0.30;0.30;;;;;;;;;;5035330;28;20319;-72
2022/03/11 06:50:17;;;;;;;0.43;0.43;;;;;;;;;;5030020;28;20200;-72
2022/03/11 06:52:44;;;;;;;0.70;0.70;;;;;;;;;;5031870;28;20202;-71
2022/03/11 06:55:12;;;;;;;0.00;0.00;;;;;;;;;;5033677;28;20192;-72
2022/03/11 06:57:40;;;;;;;0.20;0.20;;;;;;;;;;5032346;28;20707;-72
2022/03/11 07:00:10;;;;;;;2.83;0.87;;;;;;;;;;5027764;28;20201;-72
2022/03/11 07:02:39;;;;;;;0.40;0.40;;;;;;;;;;5045442;28;20205;-72
2022/03/11 07:05:07;;;;;;;3.03;0.13;;;;;;;;;;5029925;28;20284;-72
2022/03/11 07:07:35;;;;;;;0.20;0.20;;;;;;;;;;5029875;28;20208;-73
2022/03/11 07:10:02;;;;;;;0.00;0.00;;;;;;;;;;5040474;28;20231;-72
2022/03/11 07:12:31;;;;;;;6.70;2.70;;;;;;;;;;5012620;28;20224;-73
2022/03/11 07:14:59;;;;;;;1.30;0.83;;;;;;;;;;5021979;28;20236;-72
2022/03/11 07:17:28;;;;;;;3.80;1.43;;;;;;;;;;5026289;28;20707;-71
2022/03/11 07:19:56;;;;;;;0.37;0.37;;;;;;;;;;5024294;28;20200;-72
2022/03/11 07:22:23;;;;;;;1.30;1.13;;;;;;;;;;5021955;28;20230;-71
2022/03/11 07:24:50;;;;;;;1.23;0.83;;;;;;;;;;5022904;28;20208;-71
2022/03/11 07:27:18;;;;;;;1.50;1.20;;;;;;;;;;5020953;28;20193;-72
2022/03/11 07:29:45;;;;;;;1.57;1.47;;;;;;;;;;5024210;28;20201;-72
2022/03/11 07:32:16;;;;;;;1.97;1.83;;;;;;;;;;5027781;28;20219;-71
2022/03/11 07:34:44;;;;;;;0.53;0.53;;;;;;;;;;5028837;28;20278;-72
2022/03/11 07:37:13;;;;;;;0.20;0.20;;;;;;;;;;5023549;28;20661;-73
2022/03/11 07:39:42;;;;;;;4.50;1.77;;;;;;;;;;5032596;28;20283;-72
2022/03/11 07:42:09;;;;;;;0.43;0.43;;;;;;;;;;5038691;28;20234;-72
2022/03/11 07:44:37;;;;;;;1.40;1.20;;;;;;;;;;5030306;28;20200;-73
2022/03/11 07:47:04;;;;;;;0.93;0.33;;;;;;;;;;5027380;28;20572;-74
2022/03/11 07:49:32;;;;;;;0.00;0.00;;;;;;;;;;5021585;28;20200;-74
2022/03/11 07:52:02;;;;;;;0.57;0.53;;;;;;;;;;5021240;28;20204;-73
2022/03/11 07:54:29;;;;;;;0.10;0.10;;;;;;;;;;5021501;28;20196;-74
2022/03/11 07:56:57;;;;;;;4.07;2.13;;;;;;;;;;5024052;28;20208;-74
2022/03/11 07:59:28;;;;;;;2.63;0.73;;;;;;;;;;5027287;28;20200;-74
2022/03/11 08:01:55;;;;;;;1.20;1.17;;;;;;;;;;5031189;28;20652;-74
2022/03/11 08:04:24;;;;;;;0.67;0.63;;;;;;;;;;5024742;28;20699;-73
2022/03/11 08:06:51;;;;;;;6.93;1.57;;;;;;;;;;5023309;28;20654;-76
2022/03/11 08:09:20;;;;;;;2.00;0.87;;;;;;;;;;5031845;28;20219;-71
2022/03/11 08:11:47;;;;;;;1.67;1.03;;;;;;;;;;5028851;28;20202;-73
2022/03/11 08:14:14;;;;;;;1.70;1.60;;;;;;;;;;5035853;28;20717;-74
2022/03/11 08:16:42;;;;;;;2.53;1.60;;;;;;;;;;5029820;28;20200;-74
2022/03/11 08:19:09;;;;;;;1.60;1.40;;;;;;;;;;5032381;28;20216;-73
2022/03/11 08:21:37;;;;;;;0.30;0.30;;;;;;;;;;5029575;28;20311;-73
2022/03/11 08:24:04;;;;;;;1.03;1.03;;;;;;;;;;5031555;28;20600;-75
2022/03/11 08:26:33;;;;;;;1.70;0.43;;;;;;;;;;5034621;28;20528;-72
2022/03/11 08:29:01;;;;;;;5.30;4.80;;;;;;;;;;5019786;28;20196;-72
2022/03/11 08:31:29;;;;;;;0.00;0.00;;;;;;;;;;5026472;28;20579;-73
2022/03/11 08:33:56;;;;;;;0.73;0.73;;;;;;;;;;5027254;28;20200;-73
2022/03/11 08:36:24;;;;;;;1.87;0.73;;;;;;;;;;5029753;28;20215;-74
2022/03/11 08:38:51;;;;;;;1.00;0.87;;;;;;;;;;5036641;28;20210;-77
2022/03/11 08:41:19;;;;;;;0.10;0.10;;;;;;;;;;5037484;28;20618;-73
2022/03/11 08:43:49;;;;;;;2.20;0.93;;;;;;;;;;5034480;28;20653;-72
2022/03/11 08:46:17;;;;;;;0.97;0.70;;;;;;;;;;5030465;28;20199;-75
2022/03/11 08:48:44;;;;;;;4.37;3.90;;;;;;;;;;5028934;28;20712;-73
2022/03/11 08:51:12;;;;;;;1.40;1.30;;;;;;;;;;5028954;28;20200;-73
2022/03/11 08:53:40;;;;;;;2.60;1.37;;;;;;;;;;5029428;28;20200;-75
2022/03/11 08:56:07;;;;;;;2.23;1.70;;;;;;;;;;5023318;28;20975;-74
2022/03/11 08:58:35;;;;;;;0.37;0.17;;;;;;;;;;5026273;28;20200;-76
2022/03/11 09:01:04;;;;;;;1.47;1.37;;;;;;;;;;5029501;28;20255;-75
2022/03/11 09:03:31;;;;;;;4.90;1.80;;;;;;;;;;5028622;28;20223;-75
2022/03/11 09:05:59;;;;;;;0.10;0.10;;;;;;;;;;5029568;28;20207;-75
2022/03/11 09:08:26;;;;;;;0.30;0.30;;;;;;;;;;5025494;28;20204;-75
2022/03/11 09:10:54;;;;;;;0.93;0.93;;;;;;;;;;5027366;28;20223;-74
2022/03/11 09:13:21;;;;;;;1.23;0.87;;;;;;;;;;5027608;28;20728;-76
2022/03/11 09:15:48;;;;;;;1.77;0.77;;;;;;;;;;5040876;28;20212;-74
2022/03/11 09:18:17;;;;;;;0.50;0.50;;;;;;;;;;5037850;28;20665;-75
2022/03/11 09:20:44;;;;;;;0.00;0.00;;;;;;;;;;5029220;28;20295;-76
2022/03/11 09:23:12;;;;;;;3.00;2.70;;;;;;;;;;5036168;28;20222;-76
2022/03/11 09:25:39;;;;;;;1.30;0.73;;;;;;;;;;5046087;28;20203;-75
2022/03/11 09:28:10;;;;;;;0.83;0.83;;;;;;;;;;5033787;28;20652;-76
2022/03/11 09:30:37;;;;;;;0.30;0.30;;;;;;;;;;5031149;28;20208;-75
2022/03/11 09:33:04;;;;;;;1.43;1.03;;;;;;;;;;5047874;28;20199;-75
2022/03/11 09:35:33;;;;;;;2.03;1.57;;;;;;;;;;5035707;28;20197;-75
2022/03/11 09:38:01;;;;;;;0.70;0.70;;;;;;;;;;5039955;28;20196;-74
2022/03/11 09:40:28;;;;;;;0.60;0.60;;;;;;;;;;5032559;28;20573;-75
2022/03/11 09:42:56;;;;;;;2.07;1.87;;;;;;;;;;5035504;28;20238;-74
2022/03/11 09:45:24;;;;;;;0.67;0.57;;;;;;;;;;5032211;28;20215;-73
2022/03/11 09:47:51;;;;;;;1.33;1.10;;;;;;;;;;5039732;28;20232;-75
2022/03/11 09:50:19;;;;;;;1.97;1.83;;;;;;;;;;5049101;28;20549;-75
2022/03/11 09:52:49;;;;;;;2.23;1.30;;;;;;;;;;5035801;28;20196;-75
2022/03/11 09:55:17;;;;;;;1.27;1.00;;;;;;;;;;5043353;28;20193;-75
2022/03/11 09:57:44;;;;;;;0.73;0.73;;;;;;;;;;5035077;28;20710;-73
2022/03/11 10:00:12;;;;;;;0.47;0.47;;;;;;;;;;5048342;28;20202;-75
2022/03/11 10:02:42;;;;;;;1.53;1.47;;;;;;;;;;5048522;28;20716;-76
2022/03/11 10:05:09;;;;;;;1.23;1.13;;;;;;;;;;5039222;28;20663;-75
2022/03/11 10:07:37;;;;;;;0.77;0.77;;;;;;;;;;5032676;28;20206;-75
2022/03/11 10:10:14;;;;;;;0.77;0.77;;;;;;;;;;5044775;28;20231;-76
2022/03/11 10:12:44;;;;;;;0.00;0.00;;;;;;;;;;5033252;28;20218;-75
2022/03/11 10:15:13;;;;;;;5.50;1.10;;;;;;;;;;5044000;28;20580;-75
2022/03/11 10:17:41;;;;;;;0.40;0.40;;;;;;;;;;5031950;28;20192;-76
2022/03/11 10:20:10;;;;;;;0.10;0.10;;;;;;;;;;5045270;28;20661;-73
2022/03/11 10:22:38;;;;;;;0.70;0.70;;;;;;;;;;5038939;28;21420;-76
2022/03/11 10:25:09;;;;;;;6.47;2.53;;;;;;;;;;5043194;28;20207;-77
2022/03/11 10:27:57;;;;;;;0.73;0.73;;;;;;;;;;5040783;28;20200;-77
2022/03/11 10:30:25;;;;;;;2.37;1.30;;;;;;;;;;5030644;28;20231;-73
2022/03/11 10:32:53;;;;;;;1.40;1.20;;;;;;;;;;5039866;28;20211;-74
2022/03/11 10:35:21;;;;;;;1.23;1.13;;;;;;;;;;5036619;28;20199;-75
2022/03/11 10:37:59;;;;;;;2.00;1.63;;;;;;;;;;5029519;28;20287;-76
2022/03/11 10:40:27;;;;;;;2.27;1.40;;;;;;;;;;5049631;28;20195;-77
2022/03/11 10:45:52;;;;;;;1.23;0.93;;;;;;;;;;5089135;28;20543;-73
2022/03/11 10:48:39;;;;;;;0.67;0.57;;;;;;;;;;5083010;28;20201;-77
2022/03/11 10:51:10;;;;;;;0.77;0.40;;;;;;;;;;5085847;28;20208;-76
2022/03/11 10:53:39;;;;;;;1.40;1.10;;;;;;;;;;5085013;28;20611;-76
2022/03/11 10:56:07;;;;;;;3.40;2.27;;;;;;;;;;5082598;28;20194;-77
2022/03/11 10:58:36;;;;;;;2.20;0.73;;;;;;;;;;5087123;28;20194;-77
2022/03/11 11:01:05;;;;;;;0.33;0.33;;;;;;;;;;5082268;28;20199;-74
2022/03/11 11:03:34;;;;;;;1.40;1.07;;;;;;;;;;5070292;28;20207;-77
2022/03/11 11:06:01;;;;;;;2.90;1.73;;;;;;;;;;5098880;28;20693;-74
2022/03/11 11:08:29;;;;;;;2.33;1.50;;;;;;;;;;5087857;28;20198;-76
2022/03/11 11:10:57;;;;;;;1.40;0.97;;;;;;;;;;5083490;28;20194;-77
2022/03/11 11:13:24;;;;;;;1.20;1.07;;;;;;;;;;5086066;28;20256;-76
2022/03/11 11:15:53;;;;;;;2.23;1.57;;;;;;;;;;5087085;28;20664;-77
2022/03/11 11:18:24;;;;;;;4.83;2.47;;;;;;;;;;5079144;28;20195;-69
2022/03/11 11:20:54;;;;;;;0.97;0.97;;;;;;;;;;5088091;28;20667;-77
2022/03/11 11:23:23;;;;;;;1.67;1.03;;;;;;;;;;5087582;28;20194;-77
2022/03/11 11:25:52;;;;;;;4.03;1.70;;;;;;;;;;5088270;28;20651;-77
2022/03/11 11:28:20;;;;;;;2.30;2.07;;;;;;;;;;5086848;28;20656;-77
2022/03/11 11:30:48;;;;;;;0.97;0.70;;;;;;;;;;5082616;28;20194;-78
2022/03/11 11:33:16;;;;;;;0.63;0.63;;;;;;;;;;5069765;28;20682;-78
2022/03/11 11:35:45;;;;;;;0.30;0.30;;;;;;;;;;5082045;28;20226;-75
2022/03/11 11:38:33;;;;;;;0.00;0.00;;;;;;;;;;5084838;28;20205;-77
2022/03/11 11:41:01;;;;;;;1.07;0.63;;;;;;;;;;5087244;28;20731;-79
2022/03/11 11:43:30;;;;;;;3.10;2.07;;;;;;;;;;5086982;28;21385;-75
2022/03/11 11:46:10;;;;;;;3.27;1.77;;;;;;;;;;5087905;28;20574;-76
2022/03/11 11:48:56;;;;;;;4.70;2.23;;;;;;;;;;5072643;28;20263;-76
2022/03/11 11:51:45;;;;;;;0.87;0.80;;;;;;;;;;5077700;28;20214;-76
2022/03/11 11:54:13;;;;;;;2.20;1.63;;;;;;;;;;5086030;28;20230;-76
2022/03/11 11:56:41;;;;;;;1.03;0.97;;;;;;;;;;5073575;28;20207;-76
2022/03/11 11:59:10;;;;;;;0.83;0.77;;;;;;;;;;5072071;28;20202;-75
2022/03/11 12:01:44;;;;;;;4.10;1.50;;;;;;;;;;5072533;28;20195;-77
2022/03/11 12:04:24;;;;;;;0.40;0.40;;;;;;;;;;5070997;28;20212;-74
2022/03/11 12:06:57;;;;;;;2.33;0.67;;;;;;;;;;5064199;28;20209;-74
2022/03/11 12:09:39;;;;;;;2.27;2.17;;;;;;;;;;5055927;28;20291;-77
2022/03/11 12:12:06;;;;;;;0.35;0.35;;;;;;;;;;5059779;28;20286;-75
2022/03/11 12:14:34;;;;;;;2.13;1.98;;;;;;;;;;5053540;28;20223;-76
2022/03/11 12:17:03;;;;;;;0.40;0.40;;;;;;;;;;5063878;28;20226;-75
2022/03/11 12:19:40;;;;;;;2.42;1.67;;;;;;;;;;5072103;28;20210;-74
2022/03/11 12:22:31;;;;;;;0.77;0.30;;;;;;;;;;5073806;28;20202;-75
2022/03/11 12:24:59;;;;;;;0.57;0.57;;;;;;;;;;5073522;28;20672;-77
2022/03/11 12:27:45;;;;;;;1.10;0.90;;;;;;;;;;5066791;28;20572;-74
2022/03/11 12:30:13;;;;;;;0.93;0.93;;;;;;;;;;5068950;28;20257;-74
2022/03/11 12:32:41;;;;;;;1.20;0.90;;;;;;;;;;5052727;28;20254;-72
2022/03/11 12:35:09;;;;;;;2.40;1.88;;;;;;;;;;5053485;28;20227;-74
2022/03/11 12:37:38;;;;;;;1.55;1.15;;;;;;;;;;5069486;28;20207;-73
2022/03/11 12:40:10;;;;;;;0.65;0.65;;;;;;;;;;5067424;28;20199;-74
2022/03/11 12:42:38;;;;;;;0.00;0.00;;;;;;;;;;5071191;28;20246;-75
2022/03/11 12:45:06;;;;;;;0.65;0.65;;;;;;;;;;5066029;28;20319;-72
2022/03/11 12:47:37;;;;;;;0.65;0.55;;;;;;;;;;5055017;28;20204;-73
2022/03/11 12:50:05;;;;;;;0.32;0.32;;;;;;;;;;5053897;28;20196;-72
2022/03/11 12:52:38;;;;;;;1.88;1.40;;;;;;;;;;5064979;28;20755;-73
2022/03/11 12:55:20;;;;;;;2.08;1.30;;;;;;;;;;5071751;28;20226;-74
2022/03/11 12:57:51;;;;;;;0.10;0.10;;;;;;;;;;5064700;28;20214;-72
2022/03/11 13:00:19;;;;;;;0.43;0.43;;;;;;;;;;5071740;28;20207;-73
2022/03/11 13:02:47;;;;;;;0.45;0.45;;;;;;;;;;5064184;28;20268;-73
2022/03/11 13:05:21;;;;;;;0.95;0.95;;;;;;;;;;5070851;28;20219;-74
2022/03/11 13:07:50;;;;;;;1.98;1.67;;;;;;;;;;5054245;28;20210;-73
2022/03/11 13:10:21;;;;;;;1.13;1.02;;;;;;;;;;5052861;28;20203;-74
2022/03/11 13:12:50;;;;;;;0.00;0.00;;;;;;;;;;5052754;28;20203;-74
2022/03/11 13:15:22;;;;;;;0.22;0.22;;;;;;;;;;5052186;28;20281;-74
2022/03/11 13:17:51;;;;;;;0.00;0.00;;;;;;;;;;5072962;28;20294;-74
2022/03/11 13:20:32;;;;;;;1.90;1.80;;;;;;;;;;5052944;28;20196;-73
2022/03/11 13:23:08;;;;;;;1.35;0.45;;;;;;;;;;5052679;28;20209;-73
2022/03/11 13:25:36;;;;;;;1.08;0.43;;;;;;;;;;5064148;28;20206;-74
2022/03/11 13:28:03;;;;;;;0.00;0.00;;;;;;;;;;5072398;28;20743;-72
2022/03/11 13:30:32;;;;;;;0.65;0.65;;;;;;;;;;5070078;28;20195;-73
2022/03/11 13:33:11;;;;;;;0.88;0.40;;;;;;;;;;5072300;28;20664;-73
2022/03/11 13:35:38;;;;;;;1.05;0.93;;;;;;;;;;5064882;28;20231;-73
2022/03/11 13:38:07;;;;;;;0.03;0.03;;;;;;;;;;5065605;28;20237;-73
2022/03/11 13:40:34;;;;;;;0.75;0.57;;;;;;;;;;5067807;28;20221;-73
2022/03/11 13:43:03;;;;;;;0.52;0.10;;;;;;;;;;5072021;28;20191;-74
2022/03/11 13:45:31;;;;;;;0.20;0.20;;;;;;;;;;5053935;28;20703;-73
2022/03/11 13:48:08;;;;;;;2.45;1.45;;;;;;;;;;5070386;28;20199;-74
2022/03/11 13:50:36;;;;;;;0.22;0.22;;;;;;;;;;5070295;28;20202;-73
2022/03/11 13:53:04;;;;;;;0.37;0.37;;;;;;;;;;5063176;28;20202;-76
2022/03/11 13:55:34;;;;;;;0.55;0.55;;;;;;;;;;5053728;28;20237;-75
2022/03/11 13:58:14;;;;;;;0.63;0.47;;;;;;;;;;5066158;28;20198;-76
2022/03/11 14:00:42;;;;;;;0.30;0.30;;;;;;;;;;5068107;28;20199;-76
2022/03/11 14:03:16;;;;;;;0.57;0.57;;;;;;;;;;5067626;28;20210;-75
2022/03/11 14:05:44;;;;;;;0.37;0.37;;;;;;;;;;5063706;28;20589;-75
2022/03/11 14:08:13;;;;;;;0.27;0.27;;;;;;;;;;5067035;28;20206;-74
2022/03/11 14:10:45;;;;;;;0.97;0.97;;;;;;;;;;5067842;28;20203;-74
2022/03/11 14:13:15;;;;;;;0.97;0.97;;;;;;;;;;5067900;28;20209;-75
2022/03/11 14:15:44;;;;;;;0.70;0.67;;;;;;;;;;5062556;28;20726;-76
2022/03/11 14:18:13;;;;;;;0.43;0.37;;;;;;;;;;5066988;28;20207;-74
2022/03/11 14:20:41;;;;;;;0.83;0.70;;;;;;;;;;5068164;28;20334;-75
2022/03/11 14:23:09;;;;;;;0.30;0.30;;;;;;;;;;5065852;28;20199;-75
2022/03/11 14:25:37;;;;;;;5.20;1.10;;;;;;;;;;5065965;28;20222;-71
2022/03/11 14:28:06;;;;;;;0.27;0.27;;;;;;;;;;5066888;28;20242;-72
2022/03/11 14:30:33;;;;;;;0.23;0.23;;;;;;;;;;5066389;28;20203;-75
2022/03/11 14:33:01;;;;;;;0.50;0.10;;;;;;;;;;5065853;28;20647;-75
2022/03/11 14:35:29;;;;;;;1.90;1.23;;;;;;;;;;5065638;28;20317;-77
2022/03/11 14:37:56;;;;;;;0.30;0.20;;;;;;;;;;5067730;28;20207;-75
2022/03/11 14:40:23;;;;;;;1.30;1.20;;;;;;;;;;5070428;28;20199;-77
2022/03/11 14:42:51;;;;;;;0.00;0.00;;;;;;;;;;5057865;28;20210;-71
2022/03/11 14:45:20;;;;;;;0.23;0.23;;;;;;;;;;5069693;28;20314;-76
2022/03/11 14:47:47;;;;;;;0.80;0.80;;;;;;;;;;5071538;28;20206;-75
2022/03/11 14:50:15;;;;;;;0.77;0.60;;;;;;;;;;5072126;28;20195;-74
2022/03/11 14:52:44;;;;;;;1.37;1.37;;;;;;;;;;5071054;28;20206;-73
2022/03/11 14:55:11;;;;;;;0.00;0.00;;;;;;;;;;5056713;28;20231;-76